Time;durP1;ratioP1;P1;durP2;ratioP2;P2;SDS_P1;SDS_P2;PMS_P1;PMS_P2;Temp;Humidity;BMP_temperature;BMP_pressure;BME280_temperature;BME280_humidity;BME280_pressure;Samples;Min_cycle;Max_cycle;Signal;HPM_P1;HPM_P2
2022/06/06 00:02:04;;;;;;;3.78;2.50;;;15.70;85.30;;;;;;5052553;28;20021;-79
2022/06/06 00:04:30;;;;;;;5.47;2.53;;;15.60;85.50;;;;;;5035161;28;20396;-79
2022/06/06 00:06:59;;;;;;;3.80;2.65;;;15.60;85.70;;;;;;5051325;28;20132;-79
2022/06/06 00:09:26;;;;;;;6.85;2.95;;;15.50;86.00;;;;;;5034567;28;20044;-80
2022/06/06 00:11:55;;;;;;;4.90;2.70;;;15.50;86.20;;;;;;5034655;28;20504;-81
2022/06/06 00:14:21;;;;;;;3.42;2.65;;;15.40;86.50;;;;;;5034615;28;20029;-80
2022/06/06 00:16:47;;;;;;;5.18;2.25;;;15.40;86.40;;;;;;5034157;28;20029;-80
2022/06/06 00:19:13;;;;;;;4.20;2.50;;;15.40;86.50;;;;;;5034410;28;20115;-80
2022/06/06 00:21:40;;;;;;;4.90;3.03;;;15.50;86.50;;;;;;5034990;28;20029;-81
2022/06/06 00:24:06;;;;;;;4.72;3.10;;;15.40;86.40;;;;;;5038102;28;20052;-80
2022/06/06 00:26:34;;;;;;;5.95;2.63;;;15.30;86.80;;;;;;5038078;28;20025;-81
2022/06/06 00:29:00;;;;;;;5.50;3.08;;;15.30;86.70;;;;;;5038048;28;20095;-80
2022/06/06 00:36:57;;;;;;;6.53;3.00;;;15.20;87.10;;;;;;5056142;28;20427;-79
2022/06/06 00:39:23;;;;;;;8.70;3.10;;;15.10;87.40;;;;;;5037756;28;20120;-80
2022/06/06 00:41:52;;;;;;;7.53;2.50;;;15.00;87.40;;;;;;5037531;28;20025;-80
2022/06/06 00:44:32;;;;;;;7.95;2.75;;;15.00;88.30;;;;;;5037733;28;20032;-81
2022/06/06 00:47:24;;;;;;;3.40;2.63;;;15.00;87.50;;;;;;5055371;28;20025;-80
2022/06/06 00:49:59;;;;;;;5.13;3.10;;;15.00;87.50;;;;;;5035262;28;20045;-80
2022/06/06 00:52:29;;;;;;;5.72;3.08;;;15.00;87.50;;;;;;5017726;28;20474;-80
2022/06/06 00:55:00;;;;;;;5.68;3.03;;;15.00;87.40;;;;;;5017768;28;20490;-79
2022/06/06 00:57:31;;;;;;;5.93;3.28;;;14.90;87.20;;;;;;5017963;28;20474;-78
2022/06/06 01:00:00;;;;;;;4.63;3.58;;;14.80;87.20;;;;;;5017933;28;20017;-79
2022/06/06 01:02:27;;;;;;;4.35;2.88;;;14.80;87.60;;;;;;5034361;28;20038;-79
2022/06/06 01:04:54;;;;;;;4.28;2.70;;;14.70;87.70;;;;;;5017803;28;20525;-78
2022/06/06 01:07:20;;;;;;;4.45;2.80;;;14.70;88.00;;;;;;5017641;28;20470;-79
2022/06/06 01:09:47;;;;;;;6.05;3.00;;;14.70;88.00;;;;;;5017551;28;20034;-79
2022/06/06 01:12:17;;;;;;;8.30;2.95;;;14.70;88.00;;;;;;5017204;28;20021;-79
2022/06/06 01:14:47;;;;;;;3.13;2.53;;;14.70;87.70;;;;;;5017499;28;20124;-80
2022/06/06 01:17:30;;;;;;;3.92;2.85;;;14.80;87.50;;;;;;5017222;28;20390;-80
2022/06/06 01:20:41;;;;;;;3.70;2.80;;;14.80;87.10;;;;;;5017558;28;20022;-80
2022/06/06 01:23:43;;;;;;;4.95;3.13;;;14.80;87.10;;;;;;5017237;28;20044;-79
2022/06/06 01:26:33;;;;;;;3.33;2.63;;;14.70;87.20;;;;;;5017434;28;20121;-81
2022/06/06 01:29:16;;;;;;;3.03;2.72;;;14.60;87.20;;;;;;5017101;28;20044;-80
2022/06/06 01:32:21;;;;;;;8.23;2.55;;;14.60;87.30;;;;;;5017801;28;20029;-81
2022/06/06 01:35:01;;;;;;;5.90;3.10;;;14.60;87.40;;;;;;5024542;28;20037;-81
2022/06/06 01:37:43;;;;;;;5.10;3.08;;;14.50;87.50;;;;;;5017068;28;20116;-81
2022/06/06 01:40:12;;;;;;;4.55;2.55;;;14.50;87.60;;;;;;5017107;28;20031;-80
2022/06/06 01:43:00;;;;;;;3.95;2.55;;;14.50;87.50;;;;;;5017318;28;20021;-80
2022/06/06 01:46:08;;;;;;;4.45;2.40;;;14.50;87.50;;;;;;5033885;28;20155;-80
2022/06/06 01:48:37;;;;;;;5.63;2.55;;;14.50;87.10;;;;;;5028702;28;20091;-80
2022/06/06 01:51:14;;;;;;;5.05;2.90;;;14.50;87.40;;;;;;5036216;28;20029;-80
2022/06/06 01:53:41;;;;;;;5.93;2.80;;;14.50;87.30;;;;;;5036748;28;20102;-80
2022/06/06 01:56:15;;;;;;;5.03;2.50;;;14.50;87.40;;;;;;5036231;28;20366;-80
2022/06/06 01:58:41;;;;;;;2.63;1.77;;;14.40;87.00;;;;;;5054606;28;20401;-80
2022/06/06 02:01:08;;;;;;;7.80;2.88;;;14.40;87.10;;;;;;5036747;28;20037;-80
2022/06/06 02:03:37;;;;;;;2.75;1.95;;;14.40;87.20;;;;;;5036762;28;20534;-80
2022/06/06 02:06:05;;;;;;;3.65;2.83;;;14.40;87.40;;;;;;5036540;28;20056;-81
2022/06/06 02:08:32;;;;;;;3.28;2.35;;;14.40;87.20;;;;;;5035945;28;20187;-80
2022/06/06 02:10:58;;;;;;;6.07;2.85;;;14.40;87.20;;;;;;5036162;28;20028;-79
2022/06/06 02:13:25;;;;;;;2.75;2.45;;;14.50;87.10;;;;;;5036451;28;20469;-79
2022/06/06 02:15:51;;;;;;;3.58;2.88;;;14.50;86.90;;;;;;5036378;28;20083;-80
2022/06/06 02:18:17;;;;;;;3.17;2.38;;;14.40;86.70;;;;;;5036238;28;20111;-80
2022/06/06 02:20:43;;;;;;;3.85;2.45;;;14.50;86.70;;;;;;5036225;28;20071;-80
2022/06/06 02:23:08;;;;;;;3.47;2.50;;;14.40;86.80;;;;;;5036070;28;20045;-80
2022/06/06 02:25:37;;;;;;;4.10;2.90;;;14.40;86.80;;;;;;5036135;28;20025;-80
2022/06/06 02:28:04;;;;;;;2.50;2.13;;;14.40;86.80;;;;;;5035654;28;20167;-80
2022/06/06 02:30:34;;;;;;;5.03;2.65;;;14.40;87.00;;;;;;5035681;28;20064;-79
2022/06/06 02:33:00;;;;;;;3.30;2.20;;;14.40;86.50;;;;;;5035897;28;20024;-80
2022/06/06 02:35:31;;;;;;;2.90;2.17;;;14.50;86.60;;;;;;5035761;28;20024;-79
2022/06/06 02:37:58;;;;;;;6.30;2.60;;;14.50;86.50;;;;;;5035534;28;20469;-80
2022/06/06 02:40:25;;;;;;;6.55;2.28;;;14.50;86.40;;;;;;5035310;28;20044;-80
2022/06/06 02:42:51;;;;;;;4.35;2.33;;;14.50;86.40;;;;;;5035799;28;20051;-80
2022/06/06 02:45:17;;;;;;;3.20;2.28;;;14.40;86.20;;;;;;5034874;28;20064;-79
2022/06/06 02:47:46;;;;;;;2.95;2.58;;;14.40;86.30;;;;;;5035587;28;20419;-79
2022/06/06 02:50:13;;;;;;;5.28;2.95;;;14.40;86.30;;;;;;5035430;28;20412;-79
2022/06/06 02:52:39;;;;;;;4.45;2.50;;;14.30;86.60;;;;;;5053229;28;20059;-80
2022/06/06 02:55:06;;;;;;;3.15;2.58;;;14.30;86.80;;;;;;5035308;28;20070;-80
2022/06/06 02:57:40;;;;;;;3.17;2.63;;;14.30;87.10;;;;;;5034994;28;20021;-79
2022/06/06 03:00:10;;;;;;;2.70;2.50;;;14.30;87.00;;;;;;5035302;28;20029;-80
2022/06/06 03:02:35;;;;;;;4.22;2.80;;;14.40;87.00;;;;;;5035320;28;20048;-80
2022/06/06 03:05:03;;;;;;;6.38;3.05;;;14.40;86.80;;;;;;5034917;28;20466;-80
2022/06/06 03:07:53;;;;;;;8.45;2.92;;;14.30;86.80;;;;;;5051795;28;20075;-79
2022/06/06 03:10:28;;;;;;;2.85;2.25;;;14.30;87.10;;;;;;5035442;28;20358;-79
2022/06/06 03:13:21;;;;;;;3.75;2.55;;;14.30;87.10;;;;;;5035277;28;20055;-80
2022/06/06 03:21:53;;;;;;;2.83;2.55;;;14.20;87.50;;;;;;5052869;28;20453;-79
2022/06/06 03:24:28;;;;;;;6.53;2.90;;;14.30;87.60;;;;;;5035343;28;20393;-79
2022/06/06 03:27:15;;;;;;;5.40;2.75;;;14.20;87.70;;;;;;5035301;28;20028;-80
2022/06/06 03:30:05;;;;;;;4.85;2.78;;;14.20;87.50;;;;;;5034970;28;20041;-80
2022/06/06 03:32:45;;;;;;;2.92;2.63;;;14.30;87.50;;;;;;5034748;28;20018;-79
2022/06/06 03:35:35;;;;;;;4.03;2.72;;;14.30;87.40;;;;;;5034799;28;20021;-79
2022/06/06 03:38:22;;;;;;;3.55;2.83;;;14.30;87.20;;;;;;5035284;28;20017;-79
2022/06/06 03:41:15;;;;;;;3.35;2.83;;;14.30;87.40;;;;;;5035193;28;20033;-79
2022/06/06 03:43:57;;;;;;;3.78;2.60;;;14.30;87.20;;;;;;5035040;28;20112;-79
2022/06/06 03:47:04;;;;;;;3.58;2.72;;;14.30;87.30;;;;;;5035155;28;20029;-79
2022/06/06 03:50:08;;;;;;;5.93;3.03;;;14.40;88.00;;;;;;5034665;28;20060;-79
2022/06/06 03:52:45;;;;;;;6.65;3.10;;;14.40;87.20;;;;;;5034778;28;20068;-79
2022/06/06 03:55:36;;;;;;;3.63;3.00;;;14.40;87.00;;;;;;5034593;28;20035;-78
2022/06/06 03:58:03;;;;;;;3.75;2.55;;;14.40;86.50;;;;;;5037613;28;20021;-79
2022/06/06 04:00:32;;;;;;;5.82;2.83;;;14.50;86.70;;;;;;5038793;28;20029;-79
2022/06/06 04:03:00;;;;;;;9.35;3.10;;;14.50;86.50;;;;;;5038759;28;20021;-79
2022/06/06 04:05:27;;;;;;;5.22;2.83;;;14.50;86.50;;;;;;5038564;28;20025;-79
2022/06/06 04:07:52;;;;;;;3.88;2.78;;;14.50;86.50;;;;;;5038059;28;20021;-79
2022/06/06 04:10:19;;;;;;;9.05;3.17;;;14.50;86.50;;;;;;5038326;28;20108;-80
2022/06/06 04:12:59;;;;;;;3.55;2.58;;;14.60;86.20;;;;;;5038609;28;20072;-79
2022/06/06 04:15:50;;;;;;;3.80;3.10;;;14.70;86.20;;;;;;5038257;28;20037;-79
2022/06/06 04:18:39;;;;;;;3.35;2.45;;;14.70;85.60;;;;;;5038231;28;20029;-79
2022/06/06 04:21:25;;;;;;;5.38;3.08;;;14.70;85.60;;;;;;5038101;28;20052;-79
2022/06/06 04:24:36;;;;;;;4.45;3.15;;;14.70;85.40;;;;;;5038383;28;20029;-80
2022/06/06 04:27:18;;;;;;;3.90;3.00;;;14.70;85.50;;;;;;5038460;28;20021;-79
2022/06/06 04:29:58;;;;;;;5.00;2.70;;;14.80;85.20;;;;;;5038341;28;20037;-80
2022/06/06 04:32:30;;;;;;;7.30;3.28;;;14.90;85.10;;;;;;5038067;28;20098;-79
2022/06/06 04:35:10;;;;;;;5.18;2.60;;;15.00;84.70;;;;;;5038057;28;20060;-80
2022/06/06 04:38:01;;;;;;;4.30;2.40;;;15.10;84.60;;;;;;5037479;28;20047;-80
2022/06/06 04:40:39;;;;;;;5.05;2.70;;;15.20;84.30;;;;;;5038091;28;20496;-80
2022/06/06 04:43:13;;;;;;;2.78;2.50;;;15.20;84.10;;;;;;5037965;28;20033;-79
2022/06/06 04:45:51;;;;;;;6.05;2.70;;;15.30;83.80;;;;;;5039200;28;20027;-79
2022/06/06 04:48:18;;;;;;;3.90;2.65;;;15.40;83.50;;;;;;5038231;28;20049;-79
2022/06/06 04:50:46;;;;;;;3.78;2.40;;;15.50;83.50;;;;;;5037268;28;20025;-78
2022/06/06 04:53:17;;;;;;;7.13;2.70;;;15.60;83.20;;;;;;5054469;28;20026;-79
2022/06/06 04:55:46;;;;;;;4.55;2.65;;;15.60;82.80;;;;;;5055440;28;20032;-80
2022/06/06 04:58:13;;;;;;;3.70;2.85;;;15.80;82.70;;;;;;5037643;28;20481;-80
2022/06/06 05:00:40;;;;;;;3.20;2.53;;;15.90;82.40;;;;;;5037663;28;20044;-79
2022/06/06 05:03:06;;;;;;;5.78;2.95;;;16.00;81.90;;;;;;5037558;28;20382;-79
2022/06/06 05:06:00;;;;;;;3.75;3.08;;;16.00;81.70;;;;;;5053693;28;20032;-80
2022/06/06 05:08:53;;;;;;;5.78;2.67;;;16.10;81.70;;;;;;5037040;28;20124;-79
2022/06/06 05:11:41;;;;;;;4.10;2.92;;;16.20;81.50;;;;;;5037588;28;20021;-79
2022/06/06 05:14:26;;;;;;;2.72;2.40;;;16.20;81.40;;;;;;5026879;28;20033;-79
2022/06/06 05:17:24;;;;;;;7.35;2.65;;;16.30;81.40;;;;;;5037484;28;20049;-80
2022/06/06 05:19:49;;;;;;;6.78;2.90;;;16.40;81.10;;;;;;5037717;28;20035;-79
2022/06/06 05:22:52;;;;;;;5.03;2.70;;;16.40;80.20;;;;;;5037698;28;20021;-79
2022/06/06 05:25:30;;;;;;;7.90;2.70;;;16.60;79.80;;;;;;5037450;28;20031;-79
2022/06/06 05:28:17;;;;;;;4.60;3.40;;;16.70;77.60;;;;;;5037046;28;20028;-79
2022/06/06 05:30:55;;;;;;;7.78;5.72;;;16.80;75.50;;;;;;5036967;28;20025;-79
2022/06/06 05:33:37;;;;;;;3.97;3.00;;;17.00;76.20;;;;;;5036992;28;20430;-79
2022/06/06 05:36:28;;;;;;;6.05;2.90;;;17.10;75.50;;;;;;5036920;28;20021;-79
2022/06/06 05:39:15;;;;;;;3.55;2.88;;;17.10;73.40;;;;;;5036827;28;20047;-79
2022/06/06 05:42:12;;;;;;;3.60;2.40;;;17.00;72.70;;;;;;5036625;28;20053;-78
2022/06/06 05:44:41;;;;;;;8.27;3.10;;;17.00;73.70;;;;;;5036730;28;20025;-78
2022/06/06 05:47:21;;;;;;;5.00;2.78;;;17.20;73.70;;;;;;5036695;28;20022;-78
2022/06/06 05:50:15;;;;;;;5.90;2.88;;;17.30;73.00;;;;;;5054250;28;20493;-78
2022/06/06 05:53:03;;;;;;;4.03;2.83;;;17.30;73.10;;;;;;5036865;28;20039;-78
2022/06/06 05:55:44;;;;;;;3.13;2.80;;;17.40;73.40;;;;;;4996011;28;20056;-78
2022/06/06 05:58:26;;;;;;;7.57;3.30;;;17.50;73.50;;;;;;4996032;28;20141;-79
2022/06/06 06:01:45;;;;;;;8.13;3.33;;;17.50;73.70;;;;;;4995932;28;20116;-78
2022/06/06 06:04:31;;;;;;;7.15;3.30;;;17.70;73.20;;;;;;4938161;29;20112;-79
2022/06/06 06:07:02;;;;;;;3.70;3.28;;;17.80;72.80;;;;;;4938033;29;20030;-78
2022/06/06 06:09:55;;;;;;;4.80;2.95;;;17.70;72.50;;;;;;4937248;29;20130;-79
2022/06/06 06:12:26;;;;;;;3.17;2.78;;;17.80;72.20;;;;;;4937867;29;20023;-79
2022/06/06 06:15:10;;;;;;;3.72;2.50;;;17.90;70.90;;;;;;4953683;29;20551;-79
2022/06/06 06:17:39;;;;;;;6.50;2.75;;;17.90;71.60;;;;;;4937103;29;20090;-79
2022/06/06 06:20:11;;;;;;;4.93;2.85;;;18.10;70.40;;;;;;4936931;29;20432;-79
2022/06/06 06:23:00;;;;;;;3.17;2.47;;;18.10;70.00;;;;;;4937691;29;20055;-79
2022/06/06 06:25:26;;;;;;;4.78;2.47;;;18.20;68.40;;;;;;4956449;28;20117;-79
2022/06/06 06:27:58;;;;;;;3.08;2.60;;;18.30;69.10;;;;;;4976245;28;20053;-79
2022/06/06 06:30:29;;;;;;;3.42;2.40;;;18.20;68.90;;;;;;4975797;28;20050;-80
2022/06/06 06:33:12;;;;;;;4.93;2.58;;;18.20;67.00;;;;;;4975973;28;20036;-80
2022/06/06 06:36:07;;;;;;;4.97;2.30;;;18.20;66.80;;;;;;5033960;28;20063;-79
2022/06/06 06:39:04;;;;;;;7.30;2.28;;;18.30;66.70;;;;;;5053766;28;20108;-79
2022/06/06 06:41:59;;;;;;;3.38;2.40;;;18.40;66.40;;;;;;5007656;28;20025;-79
2022/06/06 06:44:34;;;;;;;6.32;2.00;;;18.40;65.70;;;;;;5035861;28;20361;-80
2022/06/06 06:47:09;;;;;;;4.80;2.30;;;18.50;65.20;;;;;;5035310;28;20025;-79
2022/06/06 06:49:47;;;;;;;3.97;2.20;;;18.40;67.10;;;;;;5035686;28;20052;-79
2022/06/06 06:52:29;;;;;;;6.22;2.17;;;18.30;66.10;;;;;;5035561;28;20021;-80
2022/06/06 06:55:02;;;;;;;4.90;2.15;;;18.50;64.80;;;;;;5035753;28;20205;-79
2022/06/06 06:57:49;;;;;;;3.58;2.20;;;18.60;64.80;;;;;;5035488;28;20465;-80
2022/06/06 07:00:28;;;;;;;8.80;2.40;;;18.80;63.70;;;;;;5035452;28;20067;-79
2022/06/06 07:08:32;;;;;;;5.97;2.70;;;18.80;63.30;;;;;;5053437;28;20059;-79
2022/06/06 07:10:07;;;;;;;3.33;2.08;;;19.00;62.60;;;;;;5052737;28;20047;-79
2022/06/06 07:12:44;;;;;;;6.57;2.50;;;19.00;62.70;;;;;;5035248;28;20029;-80
2022/06/06 07:15:34;;;;;;;5.43;2.40;;;19.20;62.90;;;;;;5035324;28;20024;-79
2022/06/06 07:18:02;;;;;;;5.40;2.60;;;19.40;62.50;;;;;;5035124;28;20394;-80
2022/06/06 07:20:28;;;;;;;4.60;2.53;;;19.40;61.60;;;;;;5034980;28;20025;-79
2022/06/06 07:23:03;;;;;;;5.40;2.55;;;19.40;61.80;;;;;;5053061;28;20041;-80
2022/06/06 07:25:38;;;;;;;6.10;3.33;;;19.40;64.00;;;;;;5034987;28;20431;-80
2022/06/06 07:28:05;;;;;;;4.22;2.50;;;19.50;62.60;;;;;;5035134;28;20029;-81
2022/06/06 07:30:37;;;;;;;3.40;2.35;;;19.50;63.10;;;;;;5035133;28;20114;-80
2022/06/06 07:33:33;;;;;;;3.60;2.53;;;19.60;62.90;;;;;;5057252;28;20068;-81
2022/06/06 07:36:02;;;;;;;3.90;2.50;;;19.50;63.70;;;;;;5039334;28;20477;-81
2022/06/06 07:38:56;;;;;;;7.30;2.33;;;19.60;62.60;;;;;;5039382;28;20389;-79
2022/06/06 07:41:52;;;;;;;4.80;2.10;;;19.60;61.80;;;;;;5039090;28;20485;-78
2022/06/06 07:44:36;;;;;;;;;;;19.40;62.60;;;;;;5039403;28;20056;-79
2022/06/06 07:47:23;;;;;;;4.63;2.30;;;19.30;63.40;;;;;;5055497;28;19905;-79
2022/06/06 07:50:09;;;;;;;5.47;2.30;;;19.30;62.40;;;;;;5038717;28;20053;-78
2022/06/06 07:52:59;;;;;;;4.40;2.60;;;19.20;62.20;;;;;;5038646;28;20032;-79
2022/06/06 07:55:32;;;;;;;3.80;2.50;;;19.00;63.10;;;;;;5038713;28;20032;-80
2022/06/06 07:58:15;;;;;;;4.35;2.22;;;18.90;64.30;;;;;;5056623;28;20414;-78
2022/06/06 08:00:41;;;;;;;3.78;2.40;;;19.20;63.60;;;;;;5038800;28;20017;-77
2022/06/06 08:03:16;;;;;;;3.95;1.88;;;19.50;62.40;;;;;;5038565;28;20029;-77
2022/06/06 08:06:08;;;;;;;6.63;2.13;;;19.50;63.20;;;;;;5038828;28;20021;-77
2022/06/06 08:08:50;;;;;;;3.75;2.03;;;19.70;62.30;;;;;;5038243;28;20040;-76
2022/06/06 08:11:27;;;;;;;3.28;2.38;;;19.70;60.30;;;;;;5038180;28;20042;-74
2022/06/06 08:13:59;;;;;;;6.15;2.50;;;19.50;60.70;;;;;;5056131;28;20048;-73
2022/06/06 08:16:47;;;;;;;3.63;2.28;;;19.50;62.80;;;;;;5038157;28;20094;-73
2022/06/06 08:19:34;;;;;;;3.72;2.20;;;19.60;61.50;;;;;;5056125;28;20025;-75
2022/06/06 08:22:00;;;;;;;5.03;2.28;;;19.60;61.30;;;;;;5055963;28;20067;-75
2022/06/06 08:24:38;;;;;;;3.42;1.98;;;19.70;61.20;;;;;;5056209;28;20036;-73
2022/06/06 08:27:06;;;;;;;2.50;1.90;;;19.80;59.60;;;;;;5038465;28;20130;-75
2022/06/06 08:29:35;;;;;;;4.80;2.33;;;19.80;58.80;;;;;;5037988;28;20067;-74
2022/06/06 08:32:01;;;;;;;3.00;1.88;;;19.80;60.00;;;;;;5038236;28;20079;-75
2022/06/06 08:34:26;;;;;;;2.88;2.10;;;19.90;59.10;;;;;;5055943;28;20021;-76
2022/06/06 08:37:13;;;;;;;4.88;1.95;;;20.00;58.80;;;;;;5055905;28;20462;-74
2022/06/06 08:40:25;;;;;;;2.75;1.92;;;20.10;58.00;;;;;;5055786;28;20416;-74
2022/06/06 08:43:10;;;;;;;3.75;2.05;;;20.20;57.80;;;;;;5055085;28;20474;-74
2022/06/06 08:45:52;;;;;;;3.53;1.92;;;20.20;57.60;;;;;;5055754;28;20079;-75
2022/06/06 08:48:44;;;;;;;3.10;2.15;;;20.20;57.30;;;;;;5055409;28;20041;-75
2022/06/06 08:51:47;;;;;;;4.95;1.88;;;20.30;58.60;;;;;;5055556;28;20033;-74
2022/06/06 08:54:48;;;;;;;2.63;1.77;;;20.30;57.10;;;;;;5055451;28;20032;-75
2022/06/06 08:57:38;;;;;;;2.15;1.77;;;20.60;56.00;;;;;;5055521;28;20029;-74
2022/06/06 09:00:11;;;;;;;2.67;1.80;;;20.80;56.20;;;;;;5055229;28;20466;-74
2022/06/06 09:03:05;;;;;;;3.50;1.90;;;21.10;54.90;;;;;;5055491;28;20104;-75
2022/06/06 09:05:46;;;;;;;3.60;1.67;;;21.00;55.80;;;;;;5055399;28;20013;-75
2022/06/06 09:09:05;;;;;;;2.72;2.15;;;21.10;56.50;;;;;;5055220;28;20124;-75
2022/06/06 09:12:07;;;;;;;4.95;1.90;;;21.10;55.40;;;;;;4974446;28;20160;-74
2022/06/06 09:14:51;;;;;;;5.35;2.20;;;20.70;55.90;;;;;;5055356;28;20114;-76
2022/06/06 09:17:35;;;;;;;5.47;1.90;;;20.30;57.10;;;;;;5055245;28;20096;-84
2022/06/06 09:20:37;;;;;;;2.67;1.80;;;20.30;58.20;;;;;;5037143;28;20030;-83
2022/06/06 09:23:30;;;;;;;5.22;2.30;;;20.60;58.60;;;;;;5055134;28;20043;-84
2022/06/06 09:26:09;;;;;;;5.30;2.58;;;21.00;58.40;;;;;;5054383;28;20397;-84
2022/06/06 09:29:23;;;;;;;3.85;2.30;;;21.30;58.60;;;;;;5054824;28;20033;-83
2022/06/06 09:32:18;;;;;;;5.43;2.38;;;21.30;58.80;;;;;;5037085;28;20392;-82
2022/06/06 09:35:08;;;;;;;5.28;2.10;;;21.40;57.50;;;;;;5037134;28;20485;-83
2022/06/06 09:37:41;;;;;;;3.17;2.13;;;21.50;55.60;;;;;;5036577;28;20029;-83
2022/06/06 09:40:32;;;;;;;2.85;1.60;;;21.70;54.20;;;;;;5037071;28;20027;-83
2022/06/06 09:43:35;;;;;;;3.55;1.65;;;21.50;50.20;;;;;;5054577;28;20037;-82
2022/06/06 09:46:20;;;;;;;2.90;1.33;;;21.30;51.30;;;;;;5054720;28;20025;-84
2022/06/06 09:48:54;;;;;;;3.63;1.77;;;21.10;47.30;;;;;;5036673;28;20417;-83
2022/06/06 09:51:20;;;;;;;3.10;1.35;;;20.90;50.70;;;;;;5054777;28;20025;-82
2022/06/06 10:00:21;;;;;;;5.07;2.00;;;21.20;49.70;;;;;;5020944;28;20040;-84
2022/06/06 10:03:26;;;;;;;2.55;1.70;;;21.30;50.40;;;;;;5036769;28;20029;-85
2022/06/06 10:06:38;;;;;;;4.50;1.83;;;21.30;49.40;;;;;;5054427;28;20481;-84
2022/06/06 10:09:22;;;;;;;2.53;1.60;;;21.20;50.20;;;;;;5054399;28;20029;-84
2022/06/06 10:12:16;;;;;;;5.13;1.88;;;21.30;51.30;;;;;;5054569;28;20494;-84
2022/06/06 10:15:12;;;;;;;2.95;1.60;;;21.70;50.30;;;;;;5036438;28;20028;-82
2022/06/06 10:17:59;;;;;;;3.33;1.48;;;21.90;47.60;;;;;;5054233;28;20021;-83
2022/06/06 10:20:33;;;;;;;3.03;1.90;;;21.60;47.90;;;;;;5054289;28;20520;-85
2022/06/06 10:23:36;;;;;;;3.42;1.60;;;21.00;49.00;;;;;;5053531;28;20025;-83
2022/06/06 10:26:19;;;;;;;1.92;1.20;;;20.80;50.40;;;;;;5035918;28;20029;-83
2022/06/06 10:29:02;;;;;;;2.28;1.30;;;20.80;49.50;;;;;;5053746;28;20488;-83
2022/06/06 10:31:48;;;;;;;3.17;1.27;;;20.80;50.20;;;;;;5035662;28;20521;-83
2022/06/06 10:34:44;;;;;;;4.70;1.48;;;21.00;50.60;;;;;;5035601;28;20029;-82
2022/06/06 10:37:21;;;;;;;;;;;21.10;47.80;;;;;;5053708;28;20496;-83
2022/06/06 10:40:10;;;;;;;1.42;1.10;;;21.20;49.60;;;;;;5035445;28;20266;-84
2022/06/06 10:42:57;;;;;;;3.40;1.50;;;21.40;47.90;;;;;;5035740;28;20078;-83
2022/06/06 10:45:37;;;;;;;2.95;1.67;;;21.50;49.60;;;;;;5035189;28;20604;-84
2022/06/06 10:48:11;;;;;;;4.25;1.40;;;21.60;48.30;;;;;;5034697;28;20412;-83
2022/06/06 10:53:50;;;;;;;4.30;1.80;;;21.70;47.00;;;;;;5022242;28;20087;-84
2022/06/06 10:56:40;;;;;;;2.28;1.50;;;21.90;49.00;;;;;;5035165;28;20029;-85
2022/06/06 10:59:44;;;;;;;1.90;1.30;;;22.00;46.30;;;;;;5053308;28;20039;-84
2022/06/06 11:02:35;;;;;;;4.78;1.60;;;22.10;45.80;;;;;;5035477;28;20028;-83
2022/06/06 11:05:25;;;;;;;3.47;1.85;;;22.00;46.70;;;;;;5053167;28;20025;-84
2022/06/06 11:07:59;;;;;;;1.48;1.17;;;21.80;47.20;;;;;;5052754;28;20108;-85
2022/06/06 11:11:11;;;;;;;2.30;1.63;;;21.90;46.30;;;;;;5052495;28;20037;-85
2022/06/06 11:13:45;;;;;;;5.25;1.83;;;22.00;45.80;;;;;;5029609;28;20304;-85
2022/06/06 11:16:41;;;;;;;5.32;1.80;;;21.90;46.20;;;;;;5035073;28;20025;-84
2022/06/06 11:19:22;;;;;;;2.28;1.40;;;22.10;44.60;;;;;;5053097;28;20500;-84
2022/06/06 11:21:50;;;;;;;2.35;1.48;;;22.20;44.90;;;;;;5053015;28;20033;-85
2022/06/06 11:24:40;;;;;;;3.60;1.52;;;22.50;45.50;;;;;;5052833;28;20378;-86
2022/06/06 11:27:11;;;;;;;3.78;1.23;;;22.90;43.20;;;;;;5035560;28;20025;-85
2022/06/06 11:30:15;;;;;;;3.53;1.70;;;23.00;43.00;;;;;;5052791;28;20034;-85
2022/06/06 11:33:09;;;;;;;6.40;1.17;;;23.20;43.20;;;;;;5052815;28;20532;-84
2022/06/06 11:35:58;;;;;;;3.70;1.52;;;23.50;42.30;;;;;;5052946;28;20025;-83
2022/06/06 11:38:27;;;;;;;1.88;1.17;;;23.50;42.20;;;;;;5034394;28;20017;-85
2022/06/06 11:41:43;;;;;;;1.92;1.25;;;23.30;40.90;;;;;;5052805;28;20021;-83
2022/06/06 11:44:39;;;;;;;2.40;1.20;;;23.20;38.40;;;;;;4991400;28;20058;-80
2022/06/06 11:47:16;;;;;;;2.80;1.42;;;23.10;41.40;;;;;;4991508;28;20101;-78
2022/06/06 11:50:09;;;;;;;3.08;1.10;;;23.40;41.10;;;;;;5036837;28;20049;-79
2022/06/06 11:52:47;;;;;;;4.90;1.75;;;23.30;42.10;;;;;;5052430;28;20033;-77
2022/06/06 11:55:41;;;;;;;2.25;1.67;;;23.00;41.10;;;;;;5052817;28;20078;-80
2022/06/06 11:58:43;;;;;;;3.70;1.02;;;22.70;42.50;;;;;;5053934;28;20040;-81
2022/06/06 12:01:27;;;;;;;3.85;1.50;;;22.60;43.20;;;;;;5039529;28;20025;-81
2022/06/06 12:04:11;;;;;;;2.13;1.38;;;22.60;43.40;;;;;;5052777;28;20024;-82
2022/06/06 12:07:04;;;;;;;2.53;1.40;;;22.50;43.50;;;;;;5034570;28;20432;-80
2022/06/06 12:09:57;;;;;;;4.18;1.63;;;22.70;44.60;;;;;;5052429;28;20094;-81
2022/06/06 12:12:37;;;;;;;3.70;1.42;;;22.70;44.00;;;;;;5052539;28;20139;-79
2022/06/06 12:15:08;;;;;;;4.40;1.58;;;22.60;44.80;;;;;;5052416;28;20017;-84
2022/06/06 12:17:57;;;;;;;3.33;1.83;;;22.30;45.00;;;;;;5052528;28;20025;-82
2022/06/06 12:20:44;;;;;;;3.80;1.38;;;22.40;44.90;;;;;;5056258;28;20458;-82
2022/06/06 12:23:22;;;;;;;5.35;1.52;;;22.80;44.30;;;;;;5056091;28;20048;-81
2022/06/06 12:26:21;;;;;;;3.22;1.48;;;23.50;42.40;;;;;;5056109;28;20033;-81
2022/06/06 12:29:05;;;;;;;2.88;1.50;;;23.70;41.80;;;;;;5056218;28;20021;-81
2022/06/06 12:31:42;;;;;;;2.55;1.50;;;23.30;42.60;;;;;;5056035;28;20025;-82
2022/06/06 12:34:26;;;;;;;2.47;1.70;;;23.20;41.80;;;;;;5055698;28;20017;-82
2022/06/06 12:36:57;;;;;;;4.05;1.77;;;23.10;43.50;;;;;;5055851;28;20485;-82
2022/06/06 12:39:29;;;;;;;2.40;1.40;;;23.50;42.30;;;;;;5056775;28;20101;-81
2022/06/06 12:42:27;;;;;;;1.98;1.45;;;23.70;41.20;;;;;;5037984;28;20386;-82
2022/06/06 12:45:30;;;;;;;3.75;1.40;;;23.80;41.20;;;;;;5055867;28;20028;-81
2022/06/06 12:48:08;;;;;;;3.22;1.52;;;24.10;41.30;;;;;;5051706;28;20041;-81
2022/06/06 12:51:00;;;;;;;3.03;1.27;;;23.70;39.70;;;;;;5035719;28;20545;-82
2022/06/06 12:53:59;;;;;;;3.70;1.33;;;23.70;40.70;;;;;;5035737;28;20029;-80
2022/06/06 12:56:54;;;;;;;3.70;1.40;;;23.70;40.40;;;;;;5035836;28;20033;-81
2022/06/06 12:59:25;;;;;;;2.20;1.50;;;23.50;40.70;;;;;;5035650;28;20097;-81
2022/06/06 13:02:08;;;;;;;1.92;1.30;;;23.70;40.90;;;;;;5035630;28;20060;-81
2022/06/06 13:04:42;;;;;;;2.75;1.20;;;23.70;41.80;;;;;;5035575;28;20441;-81
2022/06/06 13:07:50;;;;;;;4.93;1.30;;;23.90;41.00;;;;;;5035580;28;20021;-81
2022/06/06 13:10:28;;;;;;;1.98;1.40;;;24.10;40.80;;;;;;5017509;28;20292;-81
2022/06/06 13:13:28;;;;;;;1.60;1.40;;;24.30;38.70;;;;;;5035321;28;20036;-83
2022/06/06 13:16:03;;;;;;;2.80;1.30;;;24.60;39.20;;;;;;5035188;28;20062;-81
2022/06/06 13:18:53;;;;;;;2.88;1.48;;;25.00;39.00;;;;;;5035084;28;20014;-81
2022/06/06 13:21:43;;;;;;;2.25;1.17;;;25.30;36.40;;;;;;5035072;28;20112;-81
2022/06/06 13:24:52;;;;;;;4.88;1.30;;;25.40;36.10;;;;;;5035051;28;20022;-81
2022/06/06 13:27:34;;;;;;;2.25;1.50;;;25.50;35.70;;;;;;5034990;28;20116;-81
2022/06/06 13:30:20;;;;;;;2.92;1.40;;;25.40;35.50;;;;;;5035047;28;20087;-81
2022/06/06 13:33:00;;;;;;;3.80;1.33;;;24.90;35.40;;;;;;5034883;28;20022;-79
2022/06/06 13:35:40;;;;;;;2.55;1.38;;;24.60;37.80;;;;;;5034881;28;20026;-80
2022/06/06 13:38:32;;;;;;;3.72;1.52;;;24.90;37.50;;;;;;5034773;28;20385;-81
2022/06/06 13:41:49;;;;;;;2.95;1.20;;;25.00;36.00;;;;;;5034723;28;20022;-80
2022/06/06 13:44:48;;;;;;;1.20;1.10;;;24.80;36.10;;;;;;5009519;28;20499;-81
2022/06/06 13:47:24;;;;;;;2.75;1.00;;;25.00;37.10;;;;;;5034570;28;20026;-81
2022/06/06 13:50:08;;;;;;;14.90;1.52;;;25.40;35.10;;;;;;5054157;28;20129;-81
2022/06/06 13:52:52;;;;;;;2.70;1.40;;;25.10;34.80;;;;;;5054497;28;20025;-81
2022/06/06 13:55:26;;;;;;;2.03;1.25;;;25.80;34.90;;;;;;5054324;28;20485;-82
2022/06/06 13:58:37;;;;;;;1.30;1.05;;;25.70;35.60;;;;;;5054280;28;20078;-82
2022/06/06 14:01:24;;;;;;;2.47;1.10;;;25.70;33.70;;;;;;5029261;28;20033;-82
2022/06/06 14:04:11;;;;;;;2.67;1.10;;;26.10;34.90;;;;;;5054254;28;20057;-82
2022/06/06 14:06:51;;;;;;;3.47;1.20;;;26.60;33.60;;;;;;5054205;28;20021;-80
2022/06/06 14:09:17;;;;;;;1.33;1.17;;;26.60;32.10;;;;;;5053992;28;20033;-80
2022/06/06 14:12:04;;;;;;;1.83;1.10;;;26.60;32.60;;;;;;5054383;28;20409;-82
2022/06/06 14:14:33;;;;;;;2.40;1.15;;;26.80;32.20;;;;;;5072726;28;20027;-82
2022/06/06 14:17:04;;;;;;;2.75;1.25;;;26.60;32.40;;;;;;5054396;28;20024;-82
2022/06/06 14:19:56;;;;;;;2.00;1.17;;;26.00;32.80;;;;;;5054401;28;20480;-82
2022/06/06 14:22:39;;;;;;;1.50;1.40;;;25.40;33.80;;;;;;5054059;28;20028;-82
2022/06/06 14:25:07;;;;;;;2.75;1.30;;;25.50;33.50;;;;;;5053854;28;20028;-82
2022/06/06 14:27:34;;;;;;;4.38;1.40;;;26.00;35.30;;;;;;5053954;28;20444;-82